createdAt,value
2019-03-22T00:00:44.545Z,91.08
2019-03-22T00:01:44.586Z,92.11
2019-03-22T00:02:44.513Z,91.29
2019-03-22T00:03:44.502Z,92.63
2019-03-22T00:04:44.491Z,92.83
2019-03-22T00:05:44.484Z,92.63
2019-03-22T00:06:44.481Z,92.83
2019-03-22T00:07:44.459Z,92.63
2019-03-22T00:08:44.448Z,93.18
2019-03-22T00:09:44.437Z,93.49
2019-03-22T00:10:44.426Z,93.49
2019-03-22T00:11:44.416Z,93.80
2019-03-22T00:12:44.417Z,93.18
2019-03-22T00:13:44.397Z,92.77
2019-03-22T00:14:44.389Z,92.67
2019-03-22T00:15:44.373Z,93.29
2019-03-22T00:16:44.362Z,92.77
2019-03-22T00:17:44.354Z,92.97
2019-03-22T00:18:44.350Z,93.08
2019-03-22T00:19:44.329Z,93.49
2019-03-22T00:20:44.318Z,93.18
2019-03-22T00:21:44.307Z,93.59
2019-03-22T00:22:44.296Z,93.18
2019-03-22T00:23:44.285Z,92.67
2019-03-22T00:24:44.286Z,92.46
2019-03-22T00:25:44.263Z,91.33
2019-03-22T00:26:44.252Z,91.74
2019-03-22T00:27:44.241Z,91.74
2019-03-22T00:28:44.229Z,92.32
2019-03-22T00:29:44.218Z,91.49
2019-03-22T00:30:44.231Z,91.13
2019-03-22T00:31:44.199Z,91.13
2019-03-22T00:32:44.185Z,90.61
2019-03-22T00:33:44.175Z,90.81
2019-03-22T00:34:44.163Z,90.81
2019-03-22T00:35:44.153Z,91.13
2019-03-22T00:36:44.154Z,91.33
2019-03-22T00:37:44.131Z,91.95
2019-03-22T00:38:44.121Z,91.99
2019-03-22T00:39:44.111Z,91.95
2019-03-22T00:40:44.100Z,92.46
2019-03-22T00:41:44.093Z,92.05
2019-03-22T00:42:44.088Z,91.53
2019-03-22T00:43:44.066Z,91.99
2019-03-22T00:44:44.060Z,92.71
2019-03-22T00:45:44.044Z,93.59
2019-03-22T00:46:44.034Z,93.18
2019-03-22T00:47:44.021Z,92.57
2019-03-22T00:48:44.020Z,93.23
2019-03-22T00:49:43.999Z,92.77
2019-03-22T00:50:43.988Z,92.71
2019-03-22T00:51:43.978Z,91.95
2019-03-22T00:52:43.966Z,91.38
2019-03-22T00:53:44.030Z,91.33
2019-03-22T00:54:43.959Z,91.68
2019-03-22T00:55:43.934Z,90.41
2019-03-22T00:56:43.935Z,90.72
2019-03-22T00:57:43.912Z,90.41
2019-03-22T00:58:43.914Z,89.83
2019-03-22T00:59:43.890Z,89.52
2019-03-22T01:00:43.891Z,90.03
2019-03-22T01:01:43.871Z,90.45
2019-03-22T01:02:43.859Z,89.52
2019-03-22T01:03:43.851Z,89.94
2019-03-22T01:04:43.839Z,89.77
2019-03-22T01:05:43.825Z,89.52
2019-03-22T01:06:43.827Z,89.56
2019-03-22T01:07:43.807Z,90.18
2019-03-22T01:08:43.792Z,90.28
2019-03-22T01:09:43.783Z,89.97
2019-03-22T01:10:43.770Z,90.08
2019-03-22T01:11:43.759Z,90.80
2019-03-22T01:12:43.759Z,90.90
2019-03-22T01:13:43.738Z,90.80
2019-03-22T01:14:43.730Z,91.00
2019-03-22T01:15:43.718Z,91.25
2019-03-22T01:16:43.705Z,91.46
2019-03-22T01:17:43.694Z,91.66
2019-03-22T01:18:43.694Z,91.66
2019-03-22T01:19:43.672Z,91.72
2019-03-22T01:20:43.661Z,91.72
2019-03-22T01:21:43.653Z,91.46
2019-03-22T01:22:43.641Z,91.46
2019-03-22T01:23:43.628Z,91.56
2019-03-22T01:24:43.628Z,91.25
2019-03-22T01:25:43.607Z,91.62
2019-03-22T01:26:43.595Z,92.08
2019-03-22T01:27:43.586Z,91.72
2019-03-22T01:28:43.574Z,91.42
2019-03-22T01:29:43.564Z,90.80
2019-03-22T01:30:43.564Z,90.49
2019-03-22T01:31:43.550Z,90.69
2019-03-22T01:32:43.530Z,90.90
2019-03-22T01:33:43.522Z,90.59
2019-03-22T01:34:43.509Z,90.08
2019-03-22T01:35:43.499Z,90.08
2019-03-22T01:36:43.499Z,90.39
2019-03-22T01:37:43.478Z,90.49
2019-03-22T01:38:43.466Z,89.56
2019-03-22T01:39:43.457Z,89.36
2019-03-22T01:40:43.445Z,89.56
2019-03-22T01:41:43.434Z,89.81
2019-03-22T01:42:43.442Z,90.12
2019-03-22T01:43:43.412Z,90.64
2019-03-22T01:44:43.402Z,90.53
2019-03-22T01:45:43.391Z,90.22
2019-03-22T01:46:43.381Z,90.49
2019-03-22T01:47:43.371Z,90.43
2019-03-22T01:48:43.387Z,90.28
2019-03-22T01:49:43.349Z,90.22
2019-03-22T01:50:43.338Z,89.61
2019-03-22T01:51:43.328Z,89.46
2019-03-22T01:52:43.316Z,89.61
2019-03-22T01:53:43.308Z,89.29
2019-03-22T01:54:43.305Z,89.40
2019-03-22T01:55:43.284Z,89.61
2019-03-22T01:56:43.274Z,89.61
2019-03-22T01:57:52.282Z,89.81
2019-03-22T01:58:44.254Z,89.50
2019-03-22T01:59:43.247Z,88.99
2019-03-22T02:00:43.240Z,89.29
2019-03-22T02:01:43.220Z,89.23
2019-03-22T02:02:43.214Z,88.92
2019-03-22T02:03:43.199Z,88.92
2019-03-22T02:04:43.188Z,89.23
2019-03-22T02:05:43.179Z,89.65
2019-03-22T02:06:43.177Z,89.65
2019-03-22T02:07:43.156Z,89.65
2019-03-22T02:08:43.149Z,89.34
2019-03-22T02:09:43.135Z,89.44
2019-03-22T02:10:43.127Z,89.44
2019-03-22T02:11:43.114Z,89.44
2019-03-22T02:12:43.119Z,89.65
2019-03-22T02:13:43.094Z,89.44
2019-03-22T02:14:43.083Z,89.44
2019-03-22T02:15:43.071Z,89.13
2019-03-22T02:16:43.061Z,89.38
2019-03-22T02:17:43.051Z,89.13
2019-03-22T02:18:43.051Z,89.44
2019-03-22T02:19:43.029Z,89.44
2019-03-22T02:20:43.020Z,88.96
2019-03-22T02:21:43.008Z,89.38
2019-03-22T02:22:42.998Z,89.69
2019-03-22T02:23:42.987Z,89.28
2019-03-22T02:24:42.995Z,89.28
2019-03-22T02:25:42.968Z,89.38
2019-03-22T02:26:42.956Z,89.32
2019-03-22T02:27:42.955Z,89.62
2019-03-22T02:28:42.934Z,89.62
2019-03-22T02:29:44.483Z,90.25
2019-03-22T02:30:42.925Z,90.76
2019-03-22T02:31:42.904Z,90.86
2019-03-22T02:32:42.896Z,91.73
2019-03-22T02:33:42.905Z,91.11
2019-03-22T02:34:42.877Z,91.52
2019-03-22T02:35:42.858Z,91.73
2019-03-22T02:36:42.858Z,91.42
2019-03-22T02:37:42.846Z,92.25
2019-03-22T02:38:42.826Z,92.76
2019-03-22T02:39:42.917Z,93.49
2019-03-22T02:40:42.808Z,93.49
2019-03-22T02:41:42.793Z,93.49
2019-03-22T02:42:42.793Z,93.38
2019-03-22T02:43:42.776Z,92.86
2019-03-22T02:44:42.760Z,93.07
2019-03-22T02:45:42.749Z,93.18
2019-03-22T02:46:42.738Z,92.97
2019-03-22T02:47:42.730Z,92.25
2019-03-22T02:48:42.727Z,93.49
2019-03-22T02:49:42.706Z,92.86
2019-03-22T02:50:42.699Z,93.28
2019-03-22T02:51:42.682Z,94.00
2019-03-22T02:52:42.672Z,93.79
2019-03-22T02:53:42.663Z,93.69
2019-03-22T02:54:42.662Z,93.18
2019-03-22T02:55:42.665Z,92.97
2019-03-22T02:56:42.630Z,93.79
2019-03-22T02:57:42.629Z,93.38
2019-03-22T02:58:42.619Z,93.34
2019-03-22T02:59:42.596Z,93.18
2019-03-22T03:00:42.600Z,92.61
2019-03-22T03:01:42.575Z,92.66
2019-03-22T03:02:42.570Z,92.10
2019-03-22T03:03:42.552Z,91.69
2019-03-22T03:04:42.545Z,92.10
2019-03-22T03:05:42.529Z,91.73
2019-03-22T03:06:42.530Z,91.79
2019-03-22T03:07:42.508Z,91.38
2019-03-22T03:08:42.500Z,90.86
2019-03-22T03:09:42.496Z,91.01
2019-03-22T03:10:42.475Z,91.58
2019-03-22T03:11:42.465Z,91.94
2019-03-22T03:12:42.492Z,92.35
2019-03-22T03:13:42.445Z,91.83
2019-03-22T03:14:42.432Z,91.73
2019-03-22T03:15:42.424Z,91.42
2019-03-22T03:16:42.415Z,91.94
2019-03-22T03:17:42.409Z,91.83
2019-03-22T03:18:42.403Z,92.14
2019-03-22T03:19:42.383Z,91.94
2019-03-22T03:20:42.388Z,92.86
2019-03-22T03:21:42.369Z,93.49
2019-03-22T03:22:42.349Z,93.79
2019-03-22T03:23:42.333Z,93.07
2019-03-22T03:24:42.344Z,94.10
2019-03-22T03:25:42.315Z,93.18
2019-03-22T03:26:42.300Z,93.79
2019-03-22T03:27:42.292Z,94.31
2019-03-22T03:28:42.282Z,94.00
2019-03-22T03:29:42.272Z,95.03
2019-03-22T03:30:42.281Z,94.62
2019-03-22T03:31:42.246Z,94.62
2019-03-22T03:32:42.236Z,94.82
2019-03-22T03:33:42.233Z,95.24
2019-03-22T03:34:42.225Z,95.39
2019-03-22T03:35:42.203Z,95.59
2019-03-22T03:36:42.212Z,95.39
2019-03-22T03:37:42.180Z,96.36
2019-03-22T03:38:42.171Z,96.77
2019-03-22T03:39:42.160Z,97.19
2019-03-22T03:40:42.149Z,97.71
2019-03-22T03:41:42.138Z,97.44
2019-03-22T03:42:42.140Z,97.60
2019-03-22T03:43:42.134Z,97.81
2019-03-22T03:44:42.106Z,98.01
2019-03-22T03:45:42.095Z,97.71
2019-03-22T03:46:42.084Z,97.81
2019-03-22T03:47:42.074Z,97.39
2019-03-22T03:48:42.082Z,97.60
2019-03-22T03:49:42.053Z,97.71
2019-03-22T03:50:42.041Z,97.19
2019-03-22T03:51:42.032Z,97.50
2019-03-22T03:52:42.057Z,97.39
2019-03-22T03:53:42.023Z,97.60
2019-03-22T03:54:42.012Z,97.60
2019-03-22T03:55:41.990Z,97.81
2019-03-22T03:56:41.995Z,97.60
2019-03-22T03:57:41.967Z,98.11
2019-03-22T03:58:52.275Z,97.71
2019-03-22T03:59:42.953Z,97.60
2019-03-22T04:00:41.933Z,97.39
2019-03-22T04:01:41.919Z,97.33
2019-03-22T04:02:41.909Z,97.81
2019-03-22T04:03:41.898Z,97.44
2019-03-22T04:04:41.896Z,97.60
2019-03-22T04:05:41.889Z,97.13
2019-03-22T04:06:41.867Z,97.50
2019-03-22T04:07:41.859Z,97.33
2019-03-22T04:08:41.848Z,97.19
2019-03-22T04:09:41.834Z,97.23
2019-03-22T04:10:41.823Z,97.19
2019-03-22T04:11:41.823Z,97.29
2019-03-22T04:12:41.800Z,97.29
2019-03-22T04:13:41.790Z,97.19
2019-03-22T04:14:41.780Z,97.08
2019-03-22T04:15:41.767Z,96.88
2019-03-22T04:16:41.770Z,96.41
2019-03-22T04:17:41.766Z,96.09
2019-03-22T04:18:41.748Z,97.02
2019-03-22T04:19:41.725Z,97.07
2019-03-22T04:20:41.714Z,96.82
2019-03-22T04:21:41.707Z,97.28
2019-03-22T04:22:41.702Z,97.38
2019-03-22T04:23:41.692Z,97.49
2019-03-22T04:24:41.681Z,97.79
2019-03-22T04:25:41.661Z,97.79
2019-03-22T04:26:41.652Z,98.00
2019-03-22T04:27:41.646Z,97.79
2019-03-22T04:28:41.628Z,98.00
2019-03-22T04:29:41.635Z,98.00
2019-03-22T04:30:41.604Z,98.00
2019-03-22T04:31:41.593Z,98.41
2019-03-22T04:32:41.582Z,98.52
2019-03-22T04:33:41.572Z,98.62
2019-03-22T04:34:41.579Z,98.16
2019-03-22T04:35:41.560Z,97.64
2019-03-22T04:36:41.543Z,97.69
2019-03-22T04:37:41.556Z,98.00
2019-03-22T04:38:41.517Z,98.31
2019-03-22T04:39:41.506Z,98.31
2019-03-22T04:40:41.500Z,98.10
2019-03-22T04:41:41.504Z,98.41
2019-03-22T04:42:41.473Z,98.52
2019-03-22T04:43:41.461Z,98.83
2019-03-22T04:44:41.453Z,98.62
2019-03-22T04:45:41.440Z,98.52
2019-03-22T04:46:41.430Z,98.93
2019-03-22T04:47:41.438Z,98.72
2019-03-22T04:48:41.415Z,98.83
2019-03-22T04:49:41.398Z,98.41
2019-03-22T04:50:41.387Z,98.93
2019-03-22T04:51:41.380Z,98.10
2019-03-22T04:52:41.366Z,98.27
2019-03-22T04:53:41.368Z,98.16
2019-03-22T04:54:41.345Z,98.37
2019-03-22T04:55:41.335Z,97.85
2019-03-22T04:56:41.323Z,98.06
2019-03-22T04:57:41.312Z,97.23
2019-03-22T04:58:41.302Z,97.75
2019-03-22T04:59:41.300Z,97.85
2019-03-22T05:00:41.283Z,97.33
2019-03-22T05:01:41.275Z,97.44
2019-03-22T05:02:41.259Z,97.64
2019-03-22T05:03:41.247Z,97.44
2019-03-22T05:04:41.259Z,97.13
2019-03-22T05:05:41.247Z,97.33
2019-03-22T05:06:41.217Z,96.86
2019-03-22T05:07:41.203Z,97.23
2019-03-22T05:08:41.193Z,97.17
2019-03-22T05:09:41.182Z,97.59
2019-03-22T05:10:41.175Z,97.38
2019-03-22T05:11:41.169Z,97.59
2019-03-22T05:12:41.149Z,97.79
2019-03-22T05:13:41.141Z,98.10
2019-03-22T05:14:41.129Z,98.56
2019-03-22T05:15:41.118Z,98.87
2019-03-22T05:16:41.106Z,98.87
2019-03-22T05:17:41.109Z,99.49
2019-03-22T05:18:43.911Z,99.55
2019-03-22T05:19:41.073Z,99.86
2019-03-22T05:20:41.069Z,99.55
2019-03-22T05:21:41.052Z,99.76
2019-03-22T05:22:41.041Z,99.55
2019-03-22T05:23:41.046Z,99.40
2019-03-22T05:24:41.021Z,99.34
2019-03-22T05:25:41.009Z,99.04
2019-03-22T05:26:40.998Z,99.44
2019-03-22T05:27:40.987Z,99.34
2019-03-22T05:28:40.979Z,99.44
2019-03-22T05:29:40.983Z,99.55
2019-03-22T05:30:40.954Z,99.34
2019-03-22T05:31:40.944Z,99.04
2019-03-22T05:32:40.941Z,98.93
2019-03-22T05:33:40.922Z,99.04
2019-03-22T05:34:40.911Z,98.93
2019-03-22T05:35:40.910Z,98.56
2019-03-22T05:36:40.890Z,99.04
2019-03-22T05:37:40.878Z,99.49
2019-03-22T05:38:40.870Z,99.60
2019-03-22T05:39:40.856Z,99.76
2019-03-22T05:40:40.847Z,99.65
2019-03-22T05:41:40.845Z,99.99
2019-03-22T05:42:40.824Z,99.99
2019-03-22T05:43:40.813Z,99.99
2019-03-22T05:44:40.801Z,99.99
2019-03-22T05:45:40.793Z,99.91
2019-03-22T05:46:40.780Z,99.99
2019-03-22T05:47:40.788Z,99.99
2019-03-22T05:48:40.760Z,99.99
2019-03-22T05:49:40.748Z,99.99
2019-03-22T05:50:40.745Z,99.96
2019-03-22T05:51:40.727Z,99.99
2019-03-22T05:52:40.716Z,99.99
2019-03-22T05:53:40.715Z,99.99
2019-03-22T05:54:40.694Z,99.99
2019-03-22T05:55:40.683Z,99.99
2019-03-22T05:56:40.675Z,99.99
2019-03-22T05:57:40.662Z,99.99
2019-03-22T05:58:40.652Z,99.99
2019-03-22T05:59:42.674Z,99.99
2019-03-22T06:00:40.633Z,99.99
2019-03-22T06:01:40.619Z,99.99
2019-03-22T06:02:40.608Z,99.99
2019-03-22T06:03:40.598Z,99.99
2019-03-22T06:04:40.586Z,99.99
2019-03-22T06:05:40.592Z,99.99
2019-03-22T06:06:40.565Z,99.99
2019-03-22T06:07:40.570Z,99.99
2019-03-22T06:08:40.545Z,99.99
2019-03-22T06:09:40.533Z,99.99
2019-03-22T06:10:40.522Z,99.99
2019-03-22T06:11:40.523Z,99.99
2019-03-22T06:12:40.501Z,99.99
2019-03-22T06:13:40.491Z,99.99
2019-03-22T06:14:40.480Z,99.99
2019-03-22T06:15:40.469Z,99.99
2019-03-22T06:16:40.458Z,99.99
2019-03-22T06:17:51.145Z,99.99
2019-03-22T06:18:41.438Z,99.99
2019-03-22T06:19:40.425Z,99.99
2019-03-22T06:20:40.414Z,99.99
2019-03-22T06:21:40.404Z,99.99
2019-03-22T06:22:40.392Z,99.99
2019-03-22T06:23:40.401Z,99.86
2019-03-22T06:24:40.371Z,99.24
2019-03-22T06:25:40.360Z,99.14
2019-03-22T06:26:40.349Z,99.70
2019-03-22T06:27:40.340Z,99.49
2019-03-22T06:28:40.327Z,99.80
2019-03-22T06:29:40.328Z,99.80
2019-03-22T06:30:40.314Z,99.99
2019-03-22T06:31:40.295Z,99.85
2019-03-22T06:32:40.283Z,99.99
2019-03-22T06:33:40.271Z,99.99
2019-03-22T06:34:40.262Z,99.99
2019-03-22T06:35:40.261Z,99.99
2019-03-22T06:36:40.239Z,99.99
2019-03-22T06:37:40.228Z,99.99
2019-03-22T06:38:40.218Z,99.99
2019-03-22T06:39:40.207Z,99.99
2019-03-22T06:40:40.196Z,99.99
2019-03-22T06:41:40.206Z,99.99
2019-03-22T06:42:40.174Z,99.86
2019-03-22T06:43:40.166Z,99.82
2019-03-22T06:44:40.152Z,99.92
2019-03-22T06:45:40.142Z,99.99
2019-03-22T06:46:40.131Z,99.92
2019-03-22T06:47:40.132Z,99.99
2019-03-22T06:48:40.110Z,99.99
2019-03-22T06:49:40.099Z,99.99
2019-03-22T06:50:40.089Z,99.56
2019-03-22T06:51:40.078Z,99.66
2019-03-22T06:52:40.070Z,99.82
2019-03-22T06:53:40.067Z,99.21
2019-03-22T06:54:40.046Z,98.28
2019-03-22T06:55:40.036Z,98.01
2019-03-22T06:56:40.024Z,98.11
2019-03-22T06:57:40.013Z,98.49
2019-03-22T06:58:40.008Z,98.38
2019-03-22T06:59:40.013Z,97.91
2019-03-22T07:00:39.982Z,97.60
2019-03-22T07:01:39.972Z,98.11
2019-03-22T07:02:39.966Z,98.06
2019-03-22T07:03:39.955Z,98.57
2019-03-22T07:04:39.939Z,99.15
2019-03-22T07:05:39.941Z,99.56
2019-03-22T07:06:39.919Z,99.56
2019-03-22T07:07:39.911Z,99.66
2019-03-22T07:08:39.896Z,99.77
2019-03-22T07:09:39.896Z,99.98
2019-03-22T07:10:39.876Z,98.74
2019-03-22T07:11:41.867Z,98.53
2019-03-22T07:12:39.854Z,98.32
2019-03-22T07:13:39.865Z,98.53
2019-03-22T07:14:39.834Z,98.11
2019-03-22T07:15:39.844Z,98.32
2019-03-22T07:16:39.811Z,97.91
2019-03-22T07:17:39.811Z,98.53
2019-03-22T07:18:39.793Z,98.49
2019-03-22T07:19:39.782Z,98.28
2019-03-22T07:20:39.772Z,97.61
2019-03-22T07:21:39.764Z,97.51
2019-03-22T07:22:39.750Z,97.30
2019-03-22T07:23:39.755Z,96.79
2019-03-22T07:24:39.723Z,96.79
2019-03-22T07:25:39.713Z,96.17
2019-03-22T07:26:39.701Z,96.06
2019-03-22T07:27:39.692Z,96.23
2019-03-22T07:28:39.680Z,96.12
2019-03-22T07:29:39.687Z,96.02
2019-03-22T07:30:39.658Z,95.61
2019-03-22T07:31:39.649Z,95.50
2019-03-22T07:32:39.638Z,94.68
2019-03-22T07:33:39.629Z,94.74
2019-03-22T07:34:39.616Z,94.74
2019-03-22T07:35:39.618Z,94.43
2019-03-22T07:36:39.595Z,93.56
2019-03-22T07:37:39.591Z,93.56
2019-03-22T07:38:39.575Z,92.94
2019-03-22T07:39:39.564Z,92.02
2019-03-22T07:40:39.552Z,92.12
2019-03-22T07:41:39.551Z,91.91
2019-03-22T07:42:39.530Z,92.69
2019-03-22T07:43:39.545Z,91.46
2019-03-22T07:44:39.506Z,92.33
2019-03-22T07:45:39.496Z,92.63
2019-03-22T07:46:39.485Z,93.11
2019-03-22T07:47:39.497Z,93.31
2019-03-22T07:48:39.464Z,93.83
2019-03-22T07:49:39.454Z,92.69
2019-03-22T07:50:39.443Z,92.59
2019-03-22T07:51:39.439Z,92.29
2019-03-22T07:52:39.438Z,93.01
2019-03-22T07:53:39.426Z,92.59
2019-03-22T07:54:39.397Z,92.80
2019-03-22T07:55:39.392Z,93.31
2019-03-22T07:56:39.390Z,92.76
2019-03-22T07:57:39.369Z,93.06
2019-03-22T07:58:39.357Z,93.37
2019-03-22T07:59:39.369Z,93.64
2019-03-22T08:00:39.335Z,92.82
2019-03-22T08:01:39.325Z,91.85
2019-03-22T08:02:39.313Z,91.95
2019-03-22T08:03:39.302Z,93.14
2019-03-22T08:04:39.300Z,93.10
2019-03-22T08:05:50.582Z,91.76
2019-03-22T08:06:40.270Z,91.14
2019-03-22T08:07:39.261Z,90.18
2019-03-22T08:08:39.249Z,89.36
2019-03-22T08:09:39.276Z,89.25
2019-03-22T08:10:39.245Z,89.01
2019-03-22T08:11:39.235Z,89.31
2019-03-22T08:12:39.205Z,88.90
2019-03-22T08:13:39.210Z,88.80
2019-03-22T08:14:39.192Z,87.32
2019-03-22T08:15:39.171Z,87.70
2019-03-22T08:16:39.160Z,87.65
2019-03-22T08:17:39.169Z,87.92
2019-03-22T08:18:39.138Z,86.07
2019-03-22T08:19:39.160Z,84.91
2019-03-22T08:20:39.180Z,85.79
2019-03-22T08:21:39.112Z,86.10
2019-03-22T08:22:39.094Z,84.11
2019-03-22T08:23:39.104Z,82.75
2019-03-22T08:24:39.085Z,82.43
2019-03-22T08:25:39.075Z,81.58
2019-03-22T08:26:39.090Z,81.07
2019-03-22T08:27:39.040Z,81.27
2019-03-22T08:28:39.057Z,81.44
2019-03-22T08:29:39.047Z,80.21
2019-03-22T08:30:43.272Z,80.99
2019-03-22T08:31:38.996Z,80.07
2019-03-22T08:32:38.986Z,79.93
2019-03-22T08:33:38.975Z,79.16
2019-03-22T08:34:38.965Z,78.54
2019-03-22T08:35:38.966Z,78.75
2019-03-22T08:36:38.952Z,79.36
2019-03-22T08:37:38.932Z,79.73
2019-03-22T08:38:38.936Z,80.07
2019-03-22T08:39:38.910Z,79.52
2019-03-22T08:40:38.904Z,79.08
2019-03-22T08:41:38.940Z,77.86
2019-03-22T08:42:38.912Z,78.16
2019-03-22T08:43:38.868Z,79.14
2019-03-22T08:44:38.879Z,79.45
2019-03-22T08:45:38.846Z,77.89
2019-03-22T08:46:38.859Z,76.62
2019-03-22T08:47:38.865Z,76.01
2019-03-22T08:48:38.814Z,76.83
2019-03-22T08:49:38.948Z,75.10
2019-03-22T08:50:38.813Z,75.20
2019-03-22T08:51:38.806Z,75.57
2019-03-22T08:52:38.781Z,75.67
2019-03-22T08:53:38.768Z,75.57
2019-03-22T08:54:38.747Z,74.82
2019-03-22T08:55:38.736Z,75.43
2019-03-22T08:56:38.728Z,75.64
2019-03-22T08:57:38.732Z,75.40
2019-03-22T08:58:38.713Z,75.30
2019-03-22T08:59:38.702Z,74.24
2019-03-22T09:00:39.861Z,74.85
2019-03-22T09:01:38.671Z,75.06
2019-03-22T09:02:38.670Z,74.52
2019-03-22T09:03:38.650Z,71.16
2019-03-22T09:04:38.644Z,72.92
2019-03-22T09:05:38.655Z,73.57
2019-03-22T09:06:38.618Z,73.60
2019-03-22T09:07:38.607Z,75.88
2019-03-22T09:08:38.597Z,76.53
2019-03-22T09:09:41.672Z,76.93
2019-03-22T09:10:38.625Z,76.18
2019-03-22T09:11:38.602Z,75.78
2019-03-22T09:12:38.634Z,76.39
2019-03-22T09:13:38.542Z,75.33
2019-03-22T09:14:38.557Z,75.43
2019-03-22T09:15:42.030Z,74.72
2019-03-22T09:16:38.511Z,75.54
2019-03-22T09:17:38.517Z,75.40
2019-03-22T09:18:38.541Z,75.81
2019-03-22T09:19:38.477Z,74.45
2019-03-22T09:20:38.525Z,73.91
2019-03-22T09:21:38.455Z,72.99
2019-03-22T09:22:38.448Z,71.47
2019-03-22T09:23:38.453Z,71.47
2019-03-22T09:24:39.535Z,72.72
2019-03-22T09:25:38.453Z,71.50
2019-03-22T09:26:47.708Z,71.80
2019-03-22T09:27:39.389Z,72.55
2019-03-22T09:28:38.398Z,73.47
2019-03-22T09:29:38.437Z,73.30
2019-03-22T09:30:38.357Z,75.43
2019-03-22T09:31:38.395Z,74.41
2019-03-22T09:32:38.386Z,73.57
2019-03-22T09:33:38.324Z,72.75
2019-03-22T09:34:38.313Z,72.72
2019-03-22T09:35:38.313Z,71.60
2019-03-22T09:36:38.294Z,71.57
2019-03-22T09:37:38.287Z,71.47
2019-03-22T09:38:38.270Z,71.06
2019-03-22T09:39:38.261Z,71.87
2019-03-22T09:40:38.284Z,72.52
2019-03-22T09:41:38.249Z,73.02
2019-03-22T09:42:38.244Z,73.39
2019-03-22T09:43:38.219Z,71.06
2019-03-22T09:44:43.224Z,72.48
2019-03-22T09:45:39.193Z,71.33
2019-03-22T09:46:38.195Z,70.38
2019-03-22T09:47:38.184Z,70.48
2019-03-22T09:48:38.181Z,71.09
2019-03-22T09:49:38.166Z,72.21
2019-03-22T09:50:38.146Z,71.40
2019-03-22T09:51:38.132Z,71.20
2019-03-22T09:52:38.125Z,70.04
2019-03-22T09:53:38.119Z,70.35
2019-03-22T09:54:38.113Z,69.43
2019-03-22T09:55:38.086Z,68.52
2019-03-22T09:56:46.798Z,68.12
2019-03-22T09:57:39.064Z,68.73
2019-03-22T09:58:38.099Z,68.52
2019-03-22T09:59:38.062Z,68.62
2019-03-22T10:00:38.120Z,68.83
2019-03-22T10:01:38.021Z,68.29
2019-03-22T10:02:38.070Z,67.68
2019-03-22T10:03:38.003Z,67.17
2019-03-22T10:04:38.018Z,67.65
2019-03-22T10:05:37.988Z,67.34
2019-03-22T10:06:37.967Z,65.62
2019-03-22T10:07:37.981Z,65.21
2019-03-22T10:08:37.944Z,65.48
2019-03-22T10:09:37.976Z,65.59
2019-03-22T10:10:37.966Z,66.80
2019-03-22T10:11:37.934Z,66.19
2019-03-22T10:12:37.900Z,67.14
2019-03-22T10:13:37.890Z,66.94
2019-03-22T10:14:37.906Z,66.33
2019-03-22T10:15:37.879Z,67.34
2019-03-22T10:16:37.861Z,66.74
2019-03-22T10:17:37.860Z,66.19
2019-03-22T10:18:37.841Z,65.82
2019-03-22T10:19:37.826Z,66.33
2019-03-22T10:20:37.828Z,65.52
2019-03-22T10:21:37.895Z,65.08
2019-03-22T10:22:37.804Z,65.89
2019-03-22T10:23:37.817Z,65.99
2019-03-22T10:24:37.846Z,65.48
2019-03-22T10:25:37.788Z,63.32
2019-03-22T10:26:37.756Z,63.73
2019-03-22T10:27:37.744Z,63.53
2019-03-22T10:28:37.768Z,63.23
2019-03-22T10:29:37.795Z,63.83
2019-03-22T10:30:37.738Z,63.93
2019-03-22T10:31:38.012Z,64.44
2019-03-22T10:32:37.701Z,64.14
2019-03-22T10:33:37.712Z,63.12
2019-03-22T10:34:39.719Z,63.12
2019-03-22T10:35:37.674Z,63.63
2019-03-22T10:36:37.687Z,63.02
2019-03-22T10:37:37.633Z,62.49
2019-03-22T10:38:37.621Z,63.09
2019-03-22T10:39:37.614Z,62.59
2019-03-22T10:40:37.600Z,62.56
2019-03-22T10:41:37.637Z,62.79
2019-03-22T10:42:37.644Z,62.35
2019-03-22T10:43:37.567Z,62.89
2019-03-22T10:44:39.360Z,63.87
2019-03-22T10:45:37.607Z,62.46
2019-03-22T10:46:37.563Z,62.56
2019-03-22T10:47:37.535Z,62.96
2019-03-22T10:48:37.516Z,62.53
2019-03-22T10:49:37.547Z,60.91
2019-03-22T10:50:37.494Z,62.53
2019-03-22T10:51:37.486Z,61.32
2019-03-22T10:52:37.497Z,60.41
2019-03-22T10:53:37.475Z,60.41
2019-03-22T10:54:37.450Z,60.78
2019-03-22T10:55:37.442Z,61.08
2019-03-22T10:56:37.431Z,61.08
2019-03-22T10:57:40.085Z,62.90
2019-03-22T10:58:37.407Z,63.44
2019-03-22T10:59:37.415Z,62.19
2019-03-22T11:00:37.409Z,61.90
2019-03-22T11:01:48.598Z,63.10
2019-03-22T11:02:38.365Z,62.30
2019-03-22T11:03:37.441Z,61.90
2019-03-22T11:04:37.343Z,61.08
2019-03-22T11:05:37.347Z,61.66
2019-03-22T11:06:37.320Z,61.46
2019-03-22T11:07:37.309Z,59.94
2019-03-22T11:08:37.302Z,61.87
2019-03-22T11:09:37.287Z,59.34
2019-03-22T11:10:37.277Z,58.93
2019-03-22T11:11:37.275Z,59.74
2019-03-22T11:12:37.254Z,59.23
2019-03-22T11:13:37.243Z,55.80
2019-03-22T11:14:37.232Z,56.20
2019-03-22T11:15:37.224Z,57.14
2019-03-22T11:16:37.213Z,57.11
2019-03-22T11:17:37.211Z,57.21
2019-03-22T11:18:37.761Z,56.30
2019-03-22T11:19:37.183Z,55.19
2019-03-22T11:20:37.175Z,51.86
2019-03-22T11:21:37.156Z,51.25
2019-03-22T11:22:37.148Z,48.22
2019-03-22T11:23:37.153Z,48.32
2019-03-22T11:24:37.125Z,49.81
2019-03-22T11:25:37.113Z,52.16
2019-03-22T11:26:37.106Z,53.65
2019-03-22T11:27:37.094Z,53.85
2019-03-22T11:28:37.083Z,52.03
2019-03-22T11:29:37.090Z,51.53
2019-03-22T11:30:37.060Z,52.03
2019-03-22T11:31:40.072Z,51.93
2019-03-22T11:32:37.040Z,52.54
2019-03-22T11:33:37.028Z,53.55
2019-03-22T11:34:37.019Z,52.84
2019-03-22T11:35:37.242Z,53.55
2019-03-22T11:36:36.996Z,53.85
2019-03-22T11:37:36.988Z,53.96
2019-03-22T11:38:36.974Z,53.75
2019-03-22T11:39:36.964Z,53.55
2019-03-22T11:40:36.954Z,50.92
2019-03-22T11:41:36.960Z,50.72
2019-03-22T11:42:36.933Z,49.51
2019-03-22T11:43:36.921Z,50.72
2019-03-22T11:44:36.910Z,52.14
2019-03-22T11:45:36.900Z,51.53
2019-03-22T11:46:36.897Z,51.73
2019-03-22T11:47:36.898Z,51.30
2019-03-22T11:48:36.868Z,51.20
2019-03-22T11:49:36.859Z,52.31
2019-03-22T11:50:36.846Z,52.31
2019-03-22T11:51:36.838Z,51.30
2019-03-22T11:52:36.825Z,52.82
2019-03-22T11:53:36.825Z,49.69
2019-03-22T11:54:36.804Z,47.64
2019-03-22T11:55:36.793Z,46.53
2019-03-22T11:56:36.786Z,48.27
2019-03-22T11:57:36.772Z,47.67
2019-03-22T11:58:36.764Z,48.78
2019-03-22T11:59:36.762Z,48.88
2019-03-22T12:00:36.741Z,47.56
2019-03-22T12:01:36.730Z,49.28
2019-03-22T12:02:36.718Z,49.99
2019-03-22T12:03:36.721Z,50.39
2019-03-22T12:04:36.696Z,51.10
2019-03-22T12:05:40.467Z,51.40
2019-03-22T12:06:36.675Z,51.48
2019-03-22T12:07:36.666Z,51.68
2019-03-22T12:08:36.654Z,52.89
2019-03-22T12:09:36.645Z,52.56
2019-03-22T12:10:36.632Z,52.26
2019-03-22T12:11:36.636Z,51.35
2019-03-22T12:12:36.618Z,51.86
2019-03-22T12:13:36.599Z,52.67
2019-03-22T12:14:36.592Z,53.67
2019-03-22T12:15:36.578Z,53.58
2019-03-22T12:16:36.567Z,53.67
2019-03-22T12:17:36.570Z,52.26
2019-03-22T12:18:36.561Z,51.15
2019-03-22T12:19:36.535Z,50.55
2019-03-22T12:20:36.525Z,50.95
2019-03-22T12:21:36.513Z,51.35
2019-03-22T12:22:38.484Z,51.86
2019-03-22T12:23:36.518Z,51.45
2019-03-22T12:24:36.488Z,50.35
2019-03-22T12:25:36.473Z,50.32
2019-03-22T12:26:36.463Z,52.36
2019-03-22T12:27:36.994Z,51.43
2019-03-22T12:28:36.437Z,51.84
2019-03-22T12:29:36.446Z,50.52
2019-03-22T12:30:36.415Z,51.53
2019-03-22T12:31:36.404Z,51.03
2019-03-22T12:32:36.393Z,51.33
2019-03-22T12:33:36.382Z,51.23
2019-03-22T12:34:36.371Z,51.43
2019-03-22T12:35:36.381Z,50.12
2019-03-22T12:36:36.348Z,50.42
2019-03-22T12:37:36.354Z,49.82
2019-03-22T12:38:36.327Z,50.52
2019-03-22T12:39:36.317Z,50.52
2019-03-22T12:40:36.305Z,52.14
2019-03-22T12:41:36.304Z,51.53
2019-03-22T12:42:36.283Z,50.82
2019-03-22T12:43:36.271Z,51.33
2019-03-22T12:44:36.261Z,49.31
2019-03-22T12:45:36.249Z,51.03
2019-03-22T12:46:36.241Z,49.01
2019-03-22T12:47:36.239Z,50.32
2019-03-22T12:48:36.216Z,51.66
2019-03-22T12:49:36.206Z,52.04
2019-03-22T12:50:36.195Z,51.64
2019-03-22T12:51:36.183Z,51.73
2019-03-22T12:52:36.173Z,51.43